UAE88N FLKK-FVRG
Flight info
| Callsign | UAE88N |
|---|---|
| Flight time | 0h 33m |
| Altitude | 33000 |
| Route | GADBA1A GADBA DCT NZ DCT CF05 DCT FD05 |
| Aircraft | B77W/H-SDE1E2E3FGHIJ2J3J4J5M1RWXY/LB1D1 |
Departure
| Time | 2026-05-06 15:17 |
|---|---|
| Airport | Kenneth Kaunda International Airport (FLKK) |
Arrival
| Time | 2026-05-06 15:51 |
|---|---|
| Airport | Robert Gabriel Mugabe International Airport (FVRG) |
| Time | Latitude | Longitude | Altitude | Speed | Heading |
|---|---|---|---|---|---|
| 2026-05-06 15:06 | -15.32667 | 28.44802 | 3792 ft | 0 kts | 5° |
| 2026-05-06 15:07 | -15.32672 | 28.44801 | 3792 ft | 2 kts | 6° |
| 2026-05-06 15:07 | -15.32687 | 28.44800 | 3791 ft | 2 kts | 6° |
| 2026-05-06 15:08 | -15.32702 | 28.44798 | 3791 ft | 2 kts | 6° |
| 2026-05-06 15:08 | -15.32717 | 28.44797 | 3791 ft | 2 kts | 6° |
| 2026-05-06 15:08 | -15.32729 | 28.44795 | 3791 ft | 0 kts | 6° |
| 2026-05-06 15:08 | -15.32742 | 28.44795 | 3791 ft | 2 kts | 340° |
| 2026-05-06 15:09 | -15.32754 | 28.44804 | 3790 ft | 2 kts | 304° |
| 2026-05-06 15:09 | -15.32759 | 28.44816 | 3790 ft | 0 kts | 276° |
| 2026-05-06 15:09 | -15.32760 | 28.44822 | 3790 ft | 0 kts | 275° |
| 2026-05-06 15:11 | -15.32760 | 28.44821 | 3790 ft | 0 kts | 275° |
| 2026-05-06 15:11 | -15.32757 | 28.44796 | 3790 ft | 5 kts | 276° |
| 2026-05-06 15:12 | -15.32752 | 28.44756 | 3791 ft | 8 kts | 280° |
| 2026-05-06 15:12 | -15.32737 | 28.44681 | 3793 ft | 10 kts | 282° |
| 2026-05-06 15:12 | -15.32723 | 28.44616 | 3793 ft | 8 kts | 282° |
| 2026-05-06 15:12 | -15.32733 | 28.44560 | 3793 ft | 8 kts | 234° |
| 2026-05-06 15:13 | -15.32788 | 28.44488 | 3794 ft | 16 kts | 232° |
| 2026-05-06 15:13 | -15.32805 | 28.44381 | 3794 ft | 14 kts | 274° |
| 2026-05-06 15:13 | -15.32797 | 28.44280 | 3794 ft | 13 kts | 275° |
| 2026-05-06 15:13 | -15.32789 | 28.44185 | 3794 ft | 12 kts | 275° |
| 2026-05-06 15:14 | -15.32781 | 28.44098 | 3794 ft | 11 kts | 275° |
| 2026-05-06 15:14 | -15.32774 | 28.44017 | 3794 ft | 10 kts | 275° |
| 2026-05-06 15:14 | -15.32768 | 28.43938 | 3793 ft | 11 kts | 275° |
| 2026-05-06 15:14 | -15.32761 | 28.43859 | 3793 ft | 10 kts | 275° |
| 2026-05-06 15:15 | -15.32755 | 28.43784 | 3793 ft | 12 kts | 275° |
| 2026-05-06 15:15 | -15.32744 | 28.43656 | 3793 ft | 21 kts | 275° |
| 2026-05-06 15:15 | -15.32758 | 28.43515 | 3793 ft | 18 kts | 240° |
| 2026-05-06 15:15 | -15.32850 | 28.43446 | 3796 ft | 14 kts | 193° |
| 2026-05-06 15:16 | -15.32914 | 28.43444 | 3797 ft | 2 kts | 127° |
| 2026-05-06 15:16 | -15.32915 | 28.43451 | 3797 ft | 0 kts | 97° |
| 2026-05-06 15:16 | -15.32915 | 28.43452 | 3797 ft | 1 kts | 97° |
| 2026-05-06 15:16 | -15.32932 | 28.43598 | 3797 ft | 52 kts | 96° |
| 2026-05-06 15:17 | -15.32989 | 28.44224 | 3797 ft | 121 kts | 95° |
| 2026-05-06 15:17 | -15.33091 | 28.45345 | 3780 ft | 182 kts | 94° |
| 2026-05-06 15:17 | -15.33177 | 28.46711 | 4278 ft | 193 kts | 93° |
| 2026-05-06 15:17 | -15.33243 | 28.48127 | 4975 ft | 200 kts | 92° |
| 2026-05-06 15:18 | -15.33572 | 28.49563 | 5370 ft | 216 kts | 117° |
| 2026-05-06 15:18 | -15.34539 | 28.50858 | 5694 ft | 237 kts | 133° |
| 2026-05-06 15:18 | -15.35750 | 28.52174 | 6078 ft | 258 kts | 134° |
| 2026-05-06 15:18 | -15.37052 | 28.53579 | 6485 ft | 277 kts | 134° |
| 2026-05-06 15:19 | -15.38425 | 28.55060 | 7049 ft | 290 kts | 134° |
| 2026-05-06 15:19 | -15.39833 | 28.56580 | 7865 ft | 293 kts | 134° |
| 2026-05-06 15:19 | -15.41263 | 28.58122 | 8616 ft | 297 kts | 134° |
| 2026-05-06 15:19 | -15.42735 | 28.59712 | 9398 ft | 301 kts | 134° |
| 2026-05-06 15:20 | -15.44189 | 28.61281 | 10160 ft | 304 kts | 134° |
| 2026-05-06 15:20 | -15.45691 | 28.62903 | 10662 ft | 319 kts | 134° |
| 2026-05-06 15:20 | -15.47276 | 28.64614 | 11086 ft | 338 kts | 134° |
| 2026-05-06 15:20 | -15.48958 | 28.66431 | 11556 ft | 356 kts | 134° |
| 2026-05-06 15:21 | -15.50755 | 28.68373 | 12087 ft | 372 kts | 134° |
| 2026-05-06 15:21 | -15.52585 | 28.70351 | 12808 ft | 382 kts | 133° |
| 2026-05-06 15:21 | -15.54444 | 28.72362 | 13699 ft | 387 kts | 133° |
| 2026-05-06 15:21 | -15.56300 | 28.74370 | 14591 ft | 394 kts | 133° |
| 2026-05-06 15:22 | -15.58353 | 28.76324 | 15541 ft | 400 kts | 142° |
| 2026-05-06 15:22 | -15.60620 | 28.78042 | 16510 ft | 406 kts | 144° |
| 2026-05-06 15:22 | -15.62929 | 28.79739 | 17440 ft | 412 kts | 145° |
| 2026-05-06 15:22 | -15.65297 | 28.81467 | 18328 ft | 419 kts | 145° |
| 2026-05-06 15:23 | -15.67697 | 28.83215 | 19226 ft | 425 kts | 146° |
| 2026-05-06 15:23 | -15.70201 | 28.85033 | 20148 ft | 431 kts | 146° |
| 2026-05-06 15:23 | -15.72676 | 28.86829 | 20996 ft | 438 kts | 146° |
| 2026-05-06 15:23 | -15.75221 | 28.88675 | 21857 ft | 444 kts | 146° |
| 2026-05-06 15:24 | -15.77788 | 28.90536 | 22711 ft | 450 kts | 146° |
| 2026-05-06 15:24 | -15.80370 | 28.92407 | 23512 ft | 456 kts | 146° |
| 2026-05-06 15:24 | -15.82993 | 28.94308 | 24255 ft | 463 kts | 146° |
| 2026-05-06 15:24 | -15.85656 | 28.96239 | 25051 ft | 468 kts | 146° |
| 2026-05-06 15:25 | -15.88358 | 28.98199 | 25848 ft | 473 kts | 147° |
| 2026-05-06 15:25 | -15.91109 | 29.00194 | 26585 ft | 479 kts | 147° |
| 2026-05-06 15:25 | -15.93872 | 29.02199 | 27296 ft | 485 kts | 147° |
| 2026-05-06 15:25 | -15.96640 | 29.04255 | 27985 ft | 491 kts | 143° |
| 2026-05-06 15:26 | -15.99337 | 29.06517 | 28674 ft | 497 kts | 142° |
| 2026-05-06 15:26 | -16.02077 | 29.08854 | 29433 ft | 502 kts | 142° |
| 2026-05-06 15:26 | -16.04771 | 29.11146 | 30399 ft | 501 kts | 142° |
| 2026-05-06 15:26 | -16.07528 | 29.13486 | 31470 ft | 497 kts | 143° |
| 2026-05-06 15:27 | -16.10226 | 29.15770 | 32388 ft | 495 kts | 143° |
| 2026-05-06 15:27 | -16.12980 | 29.18098 | 32884 ft | 500 kts | 143° |
| 2026-05-06 15:27 | -16.15725 | 29.20416 | 32931 ft | 500 kts | 143° |
| 2026-05-06 15:28 | -16.21112 | 29.24962 | 32980 ft | 495 kts | 143° |
| 2026-05-06 15:28 | -16.26496 | 29.29503 | 33000 ft | 498 kts | 143° |
| 2026-05-06 15:29 | -16.31867 | 29.34035 | 33003 ft | 497 kts | 143° |
| 2026-05-06 15:29 | -16.37288 | 29.38610 | 33000 ft | 498 kts | 143° |
| 2026-05-06 15:30 | -16.42682 | 29.43165 | 33009 ft | 499 kts | 143° |
| 2026-05-06 15:30 | -16.48093 | 29.47737 | 33030 ft | 499 kts | 143° |
| 2026-05-06 15:31 | -16.53544 | 29.52347 | 33043 ft | 498 kts | 143° |
| 2026-05-06 15:31 | -16.58933 | 29.56907 | 33059 ft | 500 kts | 143° |
| 2026-05-06 15:32 | -16.67069 | 29.63797 | 33064 ft | 500 kts | 143° |
| 2026-05-06 15:32 | -16.72517 | 29.68416 | 33063 ft | 501 kts | 142° |
| 2026-05-06 15:33 | -16.77928 | 29.73007 | 33067 ft | 501 kts | 142° |
| 2026-05-06 15:33 | -16.83322 | 29.77587 | 33080 ft | 501 kts | 142° |
| 2026-05-06 15:34 | -16.88809 | 29.82249 | 33071 ft | 501 kts | 142° |
| 2026-05-06 15:34 | -16.94247 | 29.86874 | 33069 ft | 502 kts | 142° |
| 2026-05-06 15:35 | -16.99662 | 29.91481 | 33080 ft | 502 kts | 142° |
| 2026-05-06 15:35 | -17.05106 | 29.96118 | 33077 ft | 501 kts | 142° |
| 2026-05-06 15:36 | -17.10537 | 30.00747 | 33074 ft | 501 kts | 142° |
| 2026-05-06 15:36 | -17.15923 | 30.05342 | 33073 ft | 502 kts | 142° |
| 2026-05-06 15:37 | -17.21356 | 30.09979 | 33077 ft | 503 kts | 142° |
| 2026-05-06 15:37 | -17.26801 | 30.14632 | 32985 ft | 493 kts | 142° |
| 2026-05-06 15:38 | -17.29462 | 30.16907 | 32307 ft | 493 kts | 142° |
| 2026-05-06 15:38 | -17.32153 | 30.19208 | 31246 ft | 502 kts | 142° |
| 2026-05-06 15:38 | -17.34868 | 30.21528 | 30087 ft | 511 kts | 142° |
| 2026-05-06 15:38 | -17.37694 | 30.23946 | 28614 ft | 526 kts | 142° |
| 2026-05-06 15:39 | -17.40536 | 30.26378 | 27655 ft | 529 kts | 142° |
| 2026-05-06 15:39 | -17.43376 | 30.28812 | 26836 ft | 529 kts | 142° |
| 2026-05-06 15:39 | -17.46251 | 30.31276 | 26070 ft | 526 kts | 142° |
| 2026-05-06 15:39 | -17.49069 | 30.33693 | 25501 ft | 519 kts | 142° |
| 2026-05-06 15:40 | -17.51854 | 30.36082 | 24942 ft | 510 kts | 142° |
| 2026-05-06 15:40 | -17.54582 | 30.38423 | 24218 ft | 503 kts | 142° |
| 2026-05-06 15:40 | -17.57302 | 30.40758 | 23418 ft | 498 kts | 141° |
| 2026-05-06 15:40 | -17.59959 | 30.43039 | 22636 ft | 493 kts | 141° |
| 2026-05-06 15:41 | -17.62615 | 30.45321 | 21883 ft | 486 kts | 141° |
| 2026-05-06 15:41 | -17.65263 | 30.47596 | 21114 ft | 480 kts | 141° |
| 2026-05-06 15:41 | -17.67817 | 30.49791 | 20297 ft | 474 kts | 141° |
| 2026-05-06 15:41 | -17.70371 | 30.51988 | 19401 ft | 467 kts | 141° |
| 2026-05-06 15:42 | -17.72878 | 30.54144 | 18493 ft | 461 kts | 141° |
| 2026-05-06 15:42 | -17.75357 | 30.56277 | 17565 ft | 455 kts | 141° |
| 2026-05-06 15:42 | -17.77791 | 30.58372 | 16699 ft | 448 kts | 140° |
| 2026-05-06 15:42 | -17.80169 | 30.60421 | 15881 ft | 440 kts | 140° |
| 2026-05-06 15:43 | -17.82506 | 30.62434 | 15075 ft | 432 kts | 140° |
| 2026-05-06 15:43 | -17.84796 | 30.64408 | 14346 ft | 422 kts | 140° |
| 2026-05-06 15:43 | -17.87073 | 30.66371 | 13623 ft | 412 kts | 140° |
| 2026-05-06 15:43 | -17.89219 | 30.68312 | 12844 ft | 404 kts | 134° |
| 2026-05-06 15:44 | -17.91084 | 30.70538 | 11960 ft | 399 kts | 128° |
| 2026-05-06 15:44 | -17.92819 | 30.72797 | 11122 ft | 394 kts | 128° |
| 2026-05-06 15:44 | -17.94521 | 30.75024 | 10423 ft | 385 kts | 128° |
| 2026-05-06 15:44 | -17.96160 | 30.77169 | 10164 ft | 363 kts | 128° |
| 2026-05-06 15:45 | -17.97699 | 30.79184 | 10137 ft | 338 kts | 128° |
| 2026-05-06 15:45 | -17.99151 | 30.81088 | 9835 ft | 326 kts | 128° |
| 2026-05-06 15:45 | -18.00568 | 30.82944 | 9323 ft | 322 kts | 128° |
| 2026-05-06 15:45 | -18.01964 | 30.84775 | 8870 ft | 316 kts | 128° |
| 2026-05-06 15:46 | -18.03304 | 30.86532 | 8720 ft | 299 kts | 128° |
| 2026-05-06 15:46 | -18.04575 | 30.88201 | 8651 ft | 283 kts | 128° |
| 2026-05-06 15:46 | -18.05783 | 30.89786 | 8547 ft | 273 kts | 128° |
| 2026-05-06 15:46 | -18.06709 | 30.91473 | 8446 ft | 262 kts | 105° |
| 2026-05-06 15:47 | -18.06877 | 30.93375 | 8136 ft | 260 kts | 81° |
| 2026-05-06 15:47 | -18.06363 | 30.95118 | 7809 ft | 241 kts | 56° |
| 2026-05-06 15:47 | -18.05389 | 30.96462 | 7555 ft | 224 kts | 47° |
| 2026-05-06 15:47 | -18.04376 | 30.97624 | 7299 ft | 208 kts | 44° |
| 2026-05-06 15:48 | -18.03383 | 30.98687 | 7057 ft | 194 kts | 43° |
| 2026-05-06 15:48 | -18.02469 | 30.99643 | 6823 ft | 177 kts | 43° |
| 2026-05-06 15:48 | -18.01602 | 31.00546 | 6611 ft | 173 kts | 43° |
| 2026-05-06 15:48 | -18.00750 | 31.01432 | 6399 ft | 171 kts | 42° |
| 2026-05-06 15:49 | -17.99905 | 31.02311 | 6184 ft | 170 kts | 42° |
| 2026-05-06 15:49 | -17.99050 | 31.03199 | 5965 ft | 168 kts | 42° |
| 2026-05-06 15:49 | -17.98213 | 31.04069 | 5749 ft | 169 kts | 43° |
| 2026-05-06 15:49 | -17.97380 | 31.04934 | 5529 ft | 167 kts | 43° |
| 2026-05-06 15:50 | -17.96553 | 31.05787 | 5334 ft | 167 kts | 42° |
| 2026-05-06 15:50 | -17.95712 | 31.06639 | 5124 ft | 167 kts | 43° |
| 2026-05-06 15:50 | -17.94889 | 31.07499 | 4895 ft | 166 kts | 44° |
| 2026-05-06 15:50 | -17.94076 | 31.08347 | 4829 ft | 153 kts | 43° |
| 2026-05-06 15:51 | -17.93404 | 31.09048 | 4857 ft | 118 kts | 45° |
| 2026-05-06 15:51 | -17.92903 | 31.09571 | 4879 ft | 83 kts | 44° |
| 2026-05-06 15:51 | -17.92580 | 31.09909 | 4897 ft | 47 kts | 44° |
| 2026-05-06 15:51 | -17.92434 | 31.10062 | 4904 ft | 15 kts | 38° |
| 2026-05-06 15:52 | -17.92351 | 31.10044 | 4905 ft | 12 kts | 320° |
| 2026-05-06 15:52 | -17.92287 | 31.09994 | 4906 ft | 9 kts | 349° |
| 2026-05-06 15:52 | -17.92231 | 31.10016 | 4907 ft | 7 kts | 35° |
| 2026-05-06 15:52 | -17.92197 | 31.10045 | 4908 ft | 4 kts | 45° |
| 2026-05-06 15:53 | -17.92179 | 31.10064 | 4909 ft | 2 kts | 45° |
| 2026-05-06 15:53 | -17.92171 | 31.10072 | 4909 ft | 2 kts | 45° |
| 2026-05-06 15:53 | -17.92161 | 31.10079 | 4910 ft | 1 kts | 9° |
| 2026-05-06 15:53 | -17.92141 | 31.10065 | 4910 ft | 3 kts | 314° |
| 2026-05-06 15:54 | -17.92121 | 31.10043 | 4911 ft | 7 kts | 313° |
| 2026-05-06 15:54 | -17.92088 | 31.10008 | 4911 ft | 0 kts | 317° |